createdAt,value
2022-09-23T00:00:47.524Z,358.86
2022-09-23T00:05:54.760Z,359.63
2022-09-23T00:11:01.965Z,359.47
2022-09-23T00:16:09.198Z,359.35
2022-09-23T00:21:16.378Z,359.21
2022-09-23T00:26:23.580Z,358.79
2022-09-23T00:31:30.865Z,358.47
2022-09-23T00:36:38.063Z,359.03
2022-09-23T00:41:45.219Z,359.07
2022-09-23T00:46:52.437Z,359.45
2022-09-23T00:51:59.659Z,359.81
2022-09-23T00:57:07.136Z,360.77
2022-09-23T01:02:14.598Z,360.76
2022-09-23T01:07:21.889Z,360.73
2022-09-23T01:12:29.122Z,360.69
2022-09-23T01:17:36.386Z,361.07
2022-09-23T01:22:43.585Z,361.48
2022-09-23T01:27:51.082Z,361.03
2022-09-23T01:32:58.292Z,360.83
2022-09-23T01:38:05.488Z,360.73
2022-09-23T01:43:12.728Z,360.93
2022-09-23T01:48:19.995Z,361.17
2022-09-23T01:53:27.165Z,361.31
2022-09-23T01:58:34.420Z,361.89
2022-09-23T02:03:41.686Z,361.61
2022-09-23T02:08:48.863Z,361.87
2022-09-23T02:13:56.196Z,362.20
2022-09-23T02:19:03.458Z,361.92
2022-09-23T02:24:10.657Z,361.86
2022-09-23T02:29:17.882Z,361.89
2022-09-23T02:34:25.149Z,362.28
2022-09-23T02:39:32.365Z,362.41
2022-09-23T02:44:39.520Z,362.85
2022-09-23T02:49:46.746Z,362.68
2022-09-23T02:54:53.972Z,362.72
2022-09-23T03:00:01.192Z,363.03
2022-09-23T03:05:08.418Z,362.91
2022-09-23T03:10:15.621Z,362.67
2022-09-23T03:15:22.895Z,362.43
2022-09-23T03:20:30.112Z,363.08
2022-09-23T03:25:37.287Z,362.72
2022-09-23T03:30:44.550Z,362.66
2022-09-23T03:35:51.819Z,362.58
2022-09-23T03:40:59.041Z,362.53
2022-09-23T03:46:06.244Z,362.77
2022-09-23T03:51:13.477Z,362.44
2022-09-23T03:56:20.644Z,362.66
2022-09-23T04:01:27.906Z,362.59
2022-09-23T04:06:35.059Z,362.93
2022-09-23T04:11:42.254Z,362.76
2022-09-23T04:16:49.641Z,362.63
2022-09-23T04:21:56.773Z,362.80
2022-09-23T04:27:03.926Z,362.86
2022-09-23T04:32:11.379Z,362.66
2022-09-23T04:37:18.650Z,362.80
2022-09-23T04:42:25.873Z,362.59
2022-09-23T04:47:33.090Z,362.17
2022-09-23T04:52:40.370Z,362.54
2022-09-23T04:57:47.613Z,361.82
2022-09-23T05:02:54.811Z,362.02
2022-09-23T05:08:02.098Z,361.84
2022-09-23T05:13:09.349Z,361.72
2022-09-23T05:18:20.652Z,361.37
2022-09-23T05:23:23.965Z,361.59
2022-09-23T05:28:31.155Z,361.56
2022-09-23T05:33:38.427Z,362.21
2022-09-23T05:38:45.711Z,362.55
2022-09-23T05:43:52.850Z,362.43
2022-09-23T05:49:02.954Z,362.19
2022-09-23T05:54:07.486Z,362.05
2022-09-23T05:59:14.464Z,362.04
2022-09-23T06:04:21.679Z,361.59
2022-09-23T06:09:32.830Z,361.71
2022-09-23T06:14:36.289Z,361.25
2022-09-23T06:19:43.481Z,361.12
2022-09-23T06:24:50.804Z,361.25
2022-09-23T06:29:58.009Z,361.73
2022-09-23T06:35:07.325Z,361.79
2022-09-23T06:40:13.488Z,361.69
2022-09-23T06:45:20.632Z,361.40
2022-09-23T06:50:27.832Z,361.33
2022-09-23T06:55:35.059Z,361.01
2022-09-23T07:00:42.279Z,360.44
2022-09-23T07:05:49.528Z,360.74
2022-09-23T07:10:56.778Z,360.38
2022-09-23T07:16:03.961Z,360.70
2022-09-23T07:21:11.209Z,359.64
2022-09-23T07:26:18.493Z,359.95
2022-09-23T07:31:36.859Z,360.43
2022-09-23T07:36:33.021Z,360.08
2022-09-23T07:41:40.135Z,359.94
2022-09-23T07:46:47.391Z,359.62
2022-09-23T07:51:55.538Z,359.73
2022-09-23T07:57:02.748Z,359.97
2022-09-23T08:02:09.952Z,359.91
2022-09-23T08:07:17.153Z,360.14
2022-09-23T08:12:24.486Z,360.06
2022-09-23T08:17:31.661Z,359.66
2022-09-23T08:22:38.838Z,359.29
2022-09-23T08:27:46.099Z,359.65
2022-09-23T08:32:53.256Z,359.90
2022-09-23T08:38:00.503Z,360.27
2022-09-23T08:43:07.692Z,359.98
2022-09-23T08:48:14.866Z,360.07
2022-09-23T08:53:22.080Z,360.01
2022-09-23T08:58:29.353Z,360.21
2022-09-23T09:03:36.594Z,360.63
2022-09-23T09:08:43.777Z,360.82
2022-09-23T09:13:51.044Z,360.98
2022-09-23T09:18:58.206Z,361.57
2022-09-23T09:24:05.353Z,362.08
2022-09-23T09:29:33.805Z,363.24
2022-09-23T09:34:19.758Z,363.61
2022-09-23T09:39:26.919Z,364.34
2022-09-23T09:44:36.801Z,364.92
2022-09-23T09:49:41.324Z,365.32
2022-09-23T09:54:48.480Z,366.17
2022-09-23T09:59:55.736Z,366.56
2022-09-23T10:05:04.319Z,366.42
2022-09-23T10:10:28.889Z,366.80
2022-09-23T10:15:21.384Z,366.88
2022-09-23T10:20:28.566Z,367.64
2022-09-23T10:25:35.790Z,367.41
2022-09-23T10:30:43.094Z,368.35
2022-09-23T10:35:50.261Z,368.06
2022-09-23T10:40:57.587Z,368.42
2022-09-23T10:46:04.814Z,369.02
2022-09-23T10:51:11.927Z,369.02
2022-09-23T10:56:19.130Z,369.44
2022-09-23T11:01:26.477Z,369.50
2022-09-23T11:06:33.658Z,369.84
2022-09-23T11:11:40.859Z,370.14
2022-09-23T11:16:48.118Z,370.96
2022-09-23T11:21:55.304Z,370.87
2022-09-23T11:27:02.474Z,371.37
2022-09-23T11:32:09.665Z,372.25
2022-09-23T11:37:16.893Z,372.77
2022-09-23T11:42:24.132Z,372.95
2022-09-23T11:47:32.824Z,373.78
2022-09-23T11:52:38.630Z,374.09
2022-09-23T11:57:49.351Z,374.32
2022-09-23T12:03:03.915Z,374.94
2022-09-23T12:08:00.266Z,375.38
2022-09-23T12:13:07.402Z,376.03
2022-09-23T12:18:17.443Z,376.69
2022-09-23T12:23:21.877Z,377.06
2022-09-23T12:28:29.119Z,377.64
2022-09-23T12:33:36.397Z,377.96
2022-09-23T12:38:44.885Z,378.27
2022-09-23T12:43:52.100Z,378.98
2022-09-23T12:48:59.343Z,379.73
2022-09-23T12:54:06.544Z,380.08
2022-09-23T12:59:13.707Z,380.61
2022-09-23T13:04:20.861Z,381.18
2022-09-23T13:09:28.028Z,381.90
2022-09-23T13:14:35.227Z,382.13
2022-09-23T13:19:42.459Z,382.66
2022-09-23T13:24:49.592Z,383.49
2022-09-23T13:29:56.805Z,383.07
2022-09-23T13:35:04.060Z,383.98
2022-09-23T13:40:11.378Z,384.62
2022-09-23T13:45:18.524Z,384.52
2022-09-23T13:50:25.735Z,384.72
2022-09-23T13:55:32.978Z,385.58
2022-09-23T14:00:40.250Z,385.76
2022-09-23T14:05:47.408Z,386.38
2022-09-23T14:10:54.599Z,386.55
2022-09-23T14:16:01.877Z,386.79
2022-09-23T14:21:09.022Z,387.18
2022-09-23T14:26:16.271Z,387.20
2022-09-23T14:31:23.461Z,387.44
2022-09-23T14:36:30.717Z,387.79
2022-09-23T14:41:37.929Z,387.71
2022-09-23T14:46:45.193Z,388.08
2022-09-23T14:51:52.489Z,388.77
2022-09-23T14:56:59.677Z,388.95
2022-09-23T15:02:06.930Z,388.75
2022-09-23T15:07:14.207Z,389.01
2022-09-23T15:12:21.384Z,388.64
2022-09-23T15:17:28.553Z,389.31
2022-09-23T15:22:35.801Z,389.98
2022-09-23T15:27:42.997Z,390.16
2022-09-23T15:32:50.198Z,390.21
2022-09-23T15:37:57.505Z,390.14
2022-09-23T15:43:04.676Z,390.01
2022-09-23T15:48:11.888Z,390.64
2022-09-23T15:53:19.117Z,390.76
2022-09-23T15:58:26.410Z,390.82
2022-09-23T16:03:33.748Z,390.70
2022-09-23T16:08:40.953Z,391.55
2022-09-23T16:13:48.940Z,391.41
2022-09-23T16:18:56.150Z,391.73
2022-09-23T16:24:03.687Z,391.44
2022-09-23T16:29:11.353Z,391.68
2022-09-23T16:34:18.818Z,391.15
2022-09-23T16:39:26.012Z,391.52
2022-09-23T16:44:33.128Z,391.38
2022-09-23T16:49:40.355Z,390.69
2022-09-23T16:54:47.525Z,390.71
2022-09-23T16:59:54.707Z,390.82
2022-09-23T17:05:01.919Z,391.29
2022-09-23T17:10:09.242Z,391.61
2022-09-23T17:15:16.425Z,391.27
2022-09-23T17:20:23.665Z,391.03
2022-09-23T17:25:30.881Z,390.87
2022-09-23T17:30:38.153Z,391.26
2022-09-23T17:35:45.409Z,391.09
2022-09-23T17:40:52.672Z,391.25
2022-09-23T17:45:59.868Z,391.46
2022-09-23T17:51:07.094Z,391.61
2022-09-23T17:56:14.385Z,391.67
2022-09-23T18:01:21.695Z,391.14
2022-09-23T18:06:28.904Z,391.06
2022-09-23T18:11:36.207Z,390.85
2022-09-23T18:16:43.454Z,390.54
2022-09-23T18:21:50.672Z,390.14
2022-09-23T18:26:57.940Z,390.27
2022-09-23T18:32:05.209Z,390.04
2022-09-23T18:37:15.911Z,390.22
2022-09-23T18:42:19.750Z,390.51
2022-09-23T18:47:26.848Z,391.10
2022-09-23T18:52:34.066Z,391.28
2022-09-23T18:57:41.284Z,391.73
2022-09-23T19:02:48.494Z,391.59
2022-09-23T19:07:55.689Z,391.40
2022-09-23T19:13:02.898Z,391.68
2022-09-23T19:18:10.116Z,391.71
2022-09-23T19:23:17.270Z,391.99
2022-09-23T19:28:24.530Z,391.73
2022-09-23T19:33:31.681Z,391.91
2022-09-23T19:38:38.879Z,391.83
2022-09-23T19:43:46.118Z,391.10
2022-09-23T19:48:53.397Z,390.71
2022-09-23T19:54:00.742Z,390.86
2022-09-23T19:59:07.925Z,391.03
2022-09-23T20:04:15.110Z,391.37
2022-09-23T20:09:22.314Z,391.33
2022-09-23T20:14:29.536Z,391.79
2022-09-23T20:19:36.714Z,392.19
2022-09-23T20:24:43.931Z,392.83
2022-09-23T20:29:51.165Z,392.81
2022-09-23T20:34:58.525Z,392.16
2022-09-23T20:40:05.997Z,392.80
2022-09-23T20:45:13.153Z,393.45
2022-09-23T20:50:20.351Z,393.03
2022-09-23T20:55:27.556Z,393.79
2022-09-23T21:00:34.824Z,394.05
2022-09-23T21:05:41.984Z,394.21
2022-09-23T21:10:49.165Z,394.32
2022-09-23T21:15:56.499Z,393.73
2022-09-23T21:21:03.645Z,393.53
2022-09-23T21:26:10.847Z,393.36
2022-09-23T21:31:18.116Z,393.46
2022-09-23T21:36:25.191Z,393.73
2022-09-23T21:41:32.436Z,393.41
2022-09-23T21:46:40.492Z,393.01
2022-09-23T21:51:47.562Z,392.29
2022-09-23T21:56:54.791Z,393.03
2022-09-23T22:02:02.080Z,393.30
2022-09-23T22:07:09.252Z,393.69
2022-09-23T22:12:16.469Z,394.53
2022-09-23T22:17:23.730Z,394.77
2022-09-23T22:22:30.920Z,393.35
2022-09-23T22:27:38.155Z,393.33
2022-09-23T22:32:45.396Z,394.04
2022-09-23T22:37:52.557Z,393.69
2022-09-23T22:42:59.728Z,392.76
2022-09-23T22:48:07.015Z,393.14
2022-09-23T22:53:14.198Z,393.41
2022-09-23T22:58:32.145Z,393.45
2022-09-23T23:03:28.656Z,393.24
2022-09-23T23:08:35.808Z,393.76
2022-09-23T23:13:43.010Z,393.28
2022-09-23T23:18:50.283Z,393.76
2022-09-23T23:23:57.427Z,393.32
2022-09-23T23:29:04.616Z,394.20
2022-09-23T23:34:11.902Z,394.67
2022-09-23T23:39:19.003Z,395.64
2022-09-23T23:44:26.179Z,396.14
2022-09-23T23:49:33.470Z,396.35
2022-09-23T23:54:40.595Z,396.42
2022-09-23T23:59:47.844Z,396.63
